This demonstration page uses our WeatherBlox Daily Observations layout. Learn more.

39.01783, -85.05884

Hourly Observations for November 14, 2019

Temp ( °F °C ) Dew Point ( °F °C ) Humidity (%) Winds ( mph kmh ) Pressure ( in mb ) Visibility ( mi km ) Precip ( " mm )
12:52 am 00:52 Cloudy 26 -3.3 18 -7.8 71 71 S 8 13 30.18 1022 10 16.0934 0 0
1:52 am 01:52 Cloudy 27 -2.8 19 -7.2 72 72 S 7 11 30.19 1022 10 16.0934 0 0
2:52 am 02:52 Cloudy 28 -2.2 20 -6.7 72 72 S 7 11 30.19 1022 10 16.0934 0 0
3:52 am 03:52 Cloudy 29 -1.7 21 -6.1 72 72 SSW 7 11 30.19 1022 10 16.0934 0 0
4:52 am 04:52 Cloudy 30 -1.1 22 -5.6 72 72 SSW 8 13 30.19 1023 10 16.0934 0 0
5:52 am 05:52 Cloudy 30 -1.1 22 -5.6 72 72 SSW 8 13 30.2 1023 10 16.0934 0 0
6:52 am 06:52 Cloudy 30 -1.1 23 -5 75 75 S 8 13 30.22 1023 10 16.0934 0 0
7:52 am 07:52 Cloudy 30 -1.1 23 -5 75 75 S 8 13 30.23 1024 10 16.0934 0 0
8:52 am 08:52 Cloudy 32 0 24 -4.4 73 73 SSW 7 11 30.26 1025 10 16.0934 0 0
9:52 am 09:52 Cloudy 33 0.6 24 -4.4 70 70 S 7 11 30.26 1025 10 16.0934 0 0
12:52 pm 12:52 Mostly Cloudy 39 3.9 23 -5 53 53 SW 8 13 30.24 1024 10 16.0934 0 0
1:52 pm 13:52 Mostly Cloudy 40 4.4 25 -3.9 55 55 SSW 7 11 30.23 1024 10 16.0934 0 0
2:52 pm 14:52 Mostly Cloudy 41 5 24 -4.4 51 51 W 7 11 30.24 1024 10 16.0934 0 0
3:52 pm 15:52 Mostly Cloudy 40 4.4 25 -3.9 55 55 W 3 6 30.25 1025 10 16.0934 0 0
4:52 pm 16:52 Mostly Cloudy 40 4.4 25 -3.9 55 55 W 3 6 30.26 1025 10 16.0934 0 0
5:52 pm 17:52 Cloudy 38 3.3 25 -3.9 60 60 W 5 7 30.28 1025 10 16.0934 0 0
6:52 pm 18:52 Cloudy 36 2.2 25 -3.9 64 64 WNW 6 9 30.29 1026 10 16.0934 0 0
7:52 pm 19:52 Partly Cloudy 33 0.6 26 -3.3 75 75 S 3 6 30.3 1026 10 16.0934 0 0
8:52 pm 20:52 Partly Cloudy 32 0 24 -4.4 73 73 W 5 7 30.3 1026 10 16.0934 0 0
9:52 pm 21:52 Mostly Clear 31 -0.6 23 -5 72 72 W 6 9 30.31 1026 10 16.0934 0 0
10:52 pm 22:52 Clear 30 -1.1 22 -5.6 72 72 W 6 9 30.32 1027 10 16.0934 0 0
11:52 pm 23:52 Mostly Clear 29 -1.7 22 -5.6 75 75 WSW 3 6 30.32 1027 10 16.0934 0 0

Powered by AerisWeather